Terminal Aerodrome Forecast
Issued by NWS

Home | Current Version | Previous Version | Text Only | Print | Product List | Glossary On
Versions: 1 2 3 4 5 6 7 8 9 10 11 12 13 14 15 16 17 18 19 20 21 22 23 24 25 26 27 28 29 30
000
FTUS46 KLOX 201301 AAB
TAFPRB
TAF AMD
KPRB 201301Z 2013/2112 19005KT P6SM OVC004
     FM201500 30008KT P6SM OVC008
     FM201800 28012KT P6SM SCT015 SCT200
     FM202000 26015G25KT P6SM SCT200
     FM210400 30012KT P6SM SKC
     FM210900 32006KT P6SM SKC=

USA.gov is the U.S. government's official web portal to all federal, state and local government web resources and services.